createdAt,value
2018-07-14T00:02:11.329Z,515.17
2018-07-14T00:04:38.617Z,516.03
2018-07-14T00:07:05.857Z,517.03
2018-07-14T00:09:33.065Z,515.57
2018-07-14T00:12:00.271Z,519.37
2018-07-14T00:14:27.489Z,516.70
2018-07-14T00:16:54.680Z,514.37
2018-07-14T00:19:21.910Z,517.40
2018-07-14T00:21:49.128Z,512.77
2018-07-14T00:24:16.381Z,515.17
2018-07-14T00:26:43.590Z,516.23
2018-07-14T00:29:10.804Z,516.73
2018-07-14T00:31:37.998Z,514.13
2018-07-14T00:34:05.459Z,514.40
2018-07-14T00:36:32.645Z,519.70
2018-07-14T00:38:59.864Z,515.13
2018-07-14T00:41:27.080Z,513.13
2018-07-14T00:43:54.305Z,517.90
2018-07-14T00:46:21.518Z,516.83
2018-07-14T00:48:48.720Z,514.87
2018-07-14T00:51:15.928Z,514.47
2018-07-14T00:53:43.172Z,511.53
2018-07-14T00:56:10.395Z,514.43
2018-07-14T00:58:37.612Z,513.43
2018-07-14T01:01:04.821Z,513.10
2018-07-14T01:03:32.033Z,512.27
2018-07-14T01:05:59.286Z,514.70
2018-07-14T01:08:26.492Z,515.53
2018-07-14T01:10:53.731Z,515.77
2018-07-14T01:13:20.973Z,520.60
2018-07-14T01:15:48.423Z,515.87
2018-07-14T01:18:15.637Z,514.80
2018-07-14T01:20:42.897Z,518.43
2018-07-14T01:23:10.097Z,513.33
2018-07-14T01:25:37.360Z,515.77
2018-07-14T01:28:04.721Z,518.70
2018-07-14T01:30:31.972Z,513.93
2018-07-14T01:32:59.160Z,516.20
2018-07-14T01:35:26.369Z,514.37
2018-07-14T01:37:53.528Z,513.63
2018-07-14T01:40:20.709Z,513.60
2018-07-14T01:42:47.904Z,510.93
2018-07-14T01:45:15.083Z,514.20
2018-07-14T01:47:42.272Z,511.67
2018-07-14T01:50:09.454Z,513.67
2018-07-14T01:52:36.624Z,514.63
2018-07-14T01:55:03.881Z,515.07
2018-07-14T01:57:31.084Z,517.87
2018-07-14T01:59:58.280Z,512.80
2018-07-14T02:02:25.459Z,514.30
2018-07-14T02:04:52.647Z,515.50
2018-07-14T02:07:19.838Z,516.20
2018-07-14T02:09:47.013Z,513.43
2018-07-14T02:12:14.196Z,516.00
2018-07-14T02:14:41.489Z,513.23
2018-07-14T02:17:08.722Z,513.50
2018-07-14T02:19:35.905Z,513.10
2018-07-14T02:22:03.159Z,516.97
2018-07-14T02:24:30.352Z,514.20
2018-07-14T02:26:57.536Z,512.73
2018-07-14T02:29:24.718Z,514.33
2018-07-14T02:31:51.913Z,517.93
2018-07-14T02:34:19.087Z,510.67
2018-07-14T02:36:46.328Z,513.03
2018-07-14T02:39:13.516Z,516.83
2018-07-14T02:41:40.755Z,511.53
2018-07-14T02:44:07.948Z,512.13
2018-07-14T02:46:35.141Z,511.00
2018-07-14T02:49:02.390Z,516.60
2018-07-14T02:51:29.600Z,513.10
2018-07-14T02:53:56.889Z,513.20
2018-07-14T02:56:24.021Z,510.73
2018-07-14T02:58:51.224Z,515.73
2018-07-14T03:01:18.492Z,509.97
2018-07-14T03:03:45.669Z,515.17
2018-07-14T03:06:12.857Z,521.07
2018-07-14T03:08:40.049Z,510.73
2018-07-14T03:11:07.226Z,511.13
2018-07-14T03:13:34.428Z,510.13
2018-07-14T03:16:01.626Z,512.73
2018-07-14T03:18:28.836Z,517.17
2018-07-14T03:20:56.041Z,512.93
2018-07-14T03:23:23.341Z,512.77
2018-07-14T03:25:50.520Z,510.57
2018-07-14T03:28:17.724Z,515.17
2018-07-14T03:30:44.896Z,513.00
2018-07-14T03:33:12.156Z,511.00
2018-07-14T03:35:39.295Z,514.50
2018-07-14T03:38:06.503Z,509.57
2018-07-14T03:40:33.677Z,513.40
2018-07-14T03:43:00.891Z,513.50
2018-07-14T03:45:28.109Z,517.03
2018-07-14T03:47:55.289Z,508.63
2018-07-14T03:50:22.469Z,513.47
2018-07-14T03:52:49.652Z,512.13
2018-07-14T03:55:16.832Z,513.90
2018-07-14T03:57:44.016Z,509.53
2018-07-14T04:00:11.208Z,510.27
2018-07-14T04:02:38.402Z,512.33
2018-07-14T04:05:05.621Z,506.93
2018-07-14T04:07:32.933Z,506.43
2018-07-14T04:10:00.122Z,506.13
2018-07-14T04:12:27.286Z,510.40
2018-07-14T04:14:54.504Z,510.07
2018-07-14T04:17:21.672Z,508.70
2018-07-14T04:19:48.864Z,511.30
2018-07-14T04:22:16.057Z,507.83
2018-07-14T04:24:43.240Z,507.13
2018-07-14T04:27:10.443Z,508.03
2018-07-14T04:29:37.652Z,507.70
2018-07-14T04:32:04.895Z,508.40
2018-07-14T04:34:32.012Z,507.83
2018-07-14T04:36:59.192Z,513.63
2018-07-14T04:39:26.393Z,509.23
2018-07-14T04:41:53.717Z,511.70
2018-07-14T04:44:20.897Z,512.07
2018-07-14T04:46:48.080Z,510.17
2018-07-14T04:49:15.265Z,510.57
2018-07-14T04:51:42.460Z,514.60
2018-07-14T04:54:09.653Z,509.30
2018-07-14T04:56:37.001Z,509.73
2018-07-14T04:59:04.569Z,515.87
2018-07-14T05:01:31.779Z,511.93
2018-07-14T05:03:59.099Z,515.33
2018-07-14T05:06:26.334Z,515.07
2018-07-14T05:08:53.484Z,511.37
2018-07-14T05:11:20.793Z,516.27
2018-07-14T05:13:48.456Z,514.00
2018-07-14T05:16:15.644Z,510.70
2018-07-14T05:18:42.848Z,516.57
2018-07-14T05:21:10.076Z,511.00
2018-07-14T05:23:37.256Z,512.90
2018-07-14T05:26:04.668Z,514.37
2018-07-14T05:28:31.869Z,515.87
2018-07-14T05:30:59.061Z,516.20
2018-07-14T05:33:26.324Z,517.00
2018-07-14T05:35:53.512Z,520.90
2018-07-14T05:38:20.698Z,518.63
2018-07-14T05:40:48.176Z,516.47
2018-07-14T05:43:15.368Z,520.40
2018-07-14T05:45:42.553Z,525.13
2018-07-14T05:48:09.758Z,520.50
2018-07-14T05:50:36.943Z,520.70
2018-07-14T05:53:04.298Z,521.47
2018-07-14T05:55:31.554Z,521.50
2018-07-14T05:57:58.766Z,521.03
2018-07-14T06:00:25.973Z,526.43
2018-07-14T06:02:53.188Z,521.80
2018-07-14T06:05:20.413Z,518.90
2018-07-14T06:07:47.653Z,520.43
2018-07-14T06:10:14.806Z,520.70
2018-07-14T06:12:41.977Z,521.13
2018-07-14T06:15:09.201Z,524.23
2018-07-14T06:17:36.380Z,520.73
2018-07-14T06:20:03.854Z,528.47
2018-07-14T06:22:31.029Z,523.33
2018-07-14T06:24:58.321Z,524.83
2018-07-14T06:27:25.565Z,522.13
2018-07-14T06:29:53.093Z,523.13
2018-07-14T06:32:20.280Z,527.90
2018-07-14T06:34:47.481Z,525.10
2018-07-14T06:37:15.183Z,529.77
2018-07-14T06:39:42.360Z,528.47
2018-07-14T06:42:09.590Z,526.10
2018-07-14T06:44:36.774Z,526.43
2018-07-14T06:47:04.020Z,530.57
2018-07-14T06:49:31.205Z,528.60
2018-07-14T06:51:58.395Z,529.23
2018-07-14T06:54:25.591Z,530.07
2018-07-14T06:56:52.998Z,529.10
2018-07-14T06:59:20.204Z,535.97
2018-07-14T07:01:47.404Z,544.83
2018-07-14T07:04:14.588Z,550.60
2018-07-14T07:06:41.876Z,566.60
2018-07-14T07:09:09.065Z,569.60
2018-07-14T07:11:36.257Z,577.40
2018-07-14T07:14:03.484Z,596.37
2018-07-14T07:16:30.701Z,640.50
2018-07-14T07:18:57.984Z,622.97
2018-07-14T07:21:25.238Z,637.40
2018-07-14T07:23:52.391Z,647.40
2018-07-14T07:26:19.589Z,701.73
2018-07-14T07:28:46.822Z,711.93
2018-07-14T07:31:13.972Z,716.77
2018-07-14T07:33:41.164Z,736.83
2018-07-14T07:36:08.376Z,762.17
2018-07-14T07:38:35.736Z,727.03
2018-07-14T07:41:02.957Z,744.83
2018-07-14T07:43:30.159Z,764.70
2018-07-14T07:45:57.395Z,785.37
2018-07-14T07:48:24.609Z,762.30
2018-07-14T07:50:51.792Z,738.77
2018-07-14T07:53:18.968Z,755.97
2018-07-14T07:55:46.168Z,737.73
2018-07-14T07:58:13.360Z,756.40
2018-07-14T08:00:40.549Z,752.57
2018-07-14T08:03:07.749Z,760.30
2018-07-14T08:05:34.973Z,768.90
2018-07-14T08:08:02.141Z,777.00
2018-07-14T08:10:29.346Z,776.90
2018-07-14T08:12:56.538Z,772.03
2018-07-14T08:15:23.714Z,819.97
2018-07-14T08:17:50.909Z,830.47
2018-07-14T08:20:18.203Z,834.90
2018-07-14T08:22:45.440Z,823.67
2018-07-14T08:25:13.267Z,835.27
2018-07-14T08:27:40.517Z,846.90
2018-07-14T08:30:07.749Z,841.93
2018-07-14T08:32:34.958Z,824.00
2018-07-14T08:35:02.164Z,878.93
2018-07-14T08:37:29.372Z,855.17
2018-07-14T08:39:56.558Z,848.03
2018-07-14T08:42:23.769Z,860.10
2018-07-14T08:44:50.953Z,893.57
2018-07-14T08:47:18.140Z,894.77
2018-07-14T08:49:45.326Z,853.77
2018-07-14T08:52:12.521Z,858.97
2018-07-14T08:54:39.712Z,858.93
2018-07-14T08:57:06.924Z,854.70
2018-07-14T08:59:34.113Z,903.67
2018-07-14T09:02:01.315Z,878.10
2018-07-14T09:04:28.488Z,856.00
2018-07-14T09:06:55.685Z,862.77
2018-07-14T09:09:22.895Z,871.77
2018-07-14T09:11:50.092Z,903.73
2018-07-14T09:14:17.285Z,861.33
2018-07-14T09:16:44.472Z,884.87
2018-07-14T09:19:11.651Z,876.30
2018-07-14T09:21:38.860Z,872.30
2018-07-14T09:24:06.038Z,893.23
2018-07-14T09:26:33.228Z,865.13
2018-07-14T09:29:00.419Z,898.23
2018-07-14T09:31:27.637Z,858.17
2018-07-14T09:33:54.809Z,841.03
2018-07-14T09:36:22.023Z,849.07
2018-07-14T09:38:49.211Z,862.47
2018-07-14T09:41:16.404Z,851.90
2018-07-14T09:43:43.592Z,854.33
2018-07-14T09:46:10.824Z,845.40
2018-07-14T09:48:38.012Z,861.63
2018-07-14T09:51:05.222Z,856.77
2018-07-14T09:53:32.421Z,876.93
2018-07-14T09:55:59.604Z,871.27
2018-07-14T09:58:26.793Z,881.57
2018-07-14T10:00:59.707Z,889.57
2018-07-14T10:03:26.971Z,884.40
2018-07-14T10:05:54.090Z,897.83
2018-07-14T10:08:21.264Z,868.77
2018-07-14T10:10:48.448Z,877.77
2018-07-14T10:13:15.660Z,849.33
2018-07-14T10:15:42.827Z,809.20
2018-07-14T10:18:10.018Z,753.10
2018-07-14T10:20:37.212Z,740.43
2018-07-14T10:23:04.401Z,736.20
2018-07-14T10:25:31.645Z,744.13
2018-07-14T10:27:58.792Z,780.97
2018-07-14T10:30:26.005Z,804.53
2018-07-14T10:32:53.176Z,817.87
2018-07-14T10:35:20.358Z,829.90
2018-07-14T10:37:47.545Z,884.17
2018-07-14T10:40:14.738Z,875.37
2018-07-14T10:42:41.922Z,893.67
2018-07-14T10:45:09.142Z,879.23
2018-07-14T10:47:36.349Z,901.43
2018-07-14T10:50:03.565Z,882.13
2018-07-14T10:52:30.756Z,872.93
2018-07-14T10:54:57.941Z,852.97
2018-07-14T10:57:25.126Z,819.57
2018-07-14T10:59:52.308Z,834.27
2018-07-14T11:02:19.496Z,823.27
2018-07-14T11:04:46.674Z,836.73
2018-07-14T11:07:13.864Z,826.80
2018-07-14T11:09:41.048Z,865.33
2018-07-14T11:12:08.259Z,857.93
2018-07-14T11:14:35.668Z,845.37
2018-07-14T11:17:02.876Z,835.63
2018-07-14T11:19:30.050Z,828.50
2018-07-14T11:21:57.261Z,812.43
2018-07-14T11:24:24.453Z,798.37
2018-07-14T11:26:51.724Z,770.03
2018-07-14T11:29:18.902Z,748.77
2018-07-14T11:31:46.116Z,733.30
2018-07-14T11:34:13.320Z,746.30
2018-07-14T11:36:40.521Z,751.10
2018-07-14T11:39:07.713Z,732.17
2018-07-14T11:41:34.940Z,734.67
2018-07-14T11:44:02.172Z,749.27
2018-07-14T11:46:29.361Z,736.73
2018-07-14T11:48:56.549Z,769.77
2018-07-14T11:51:23.736Z,777.47
2018-07-14T11:53:50.916Z,811.20
2018-07-14T11:56:18.129Z,843.90
2018-07-14T11:58:45.336Z,854.10
2018-07-14T12:01:12.604Z,830.90
2018-07-14T12:03:39.732Z,822.90
2018-07-14T12:06:06.912Z,844.77
2018-07-14T12:08:34.116Z,842.93
2018-07-14T12:11:01.313Z,860.87
2018-07-14T12:13:28.536Z,867.40
2018-07-14T12:15:55.704Z,863.93
2018-07-14T12:18:22.885Z,859.33
2018-07-14T12:20:50.086Z,855.13
2018-07-14T12:23:17.295Z,851.30
2018-07-14T12:25:44.478Z,838.90
2018-07-14T12:28:11.668Z,835.77
2018-07-14T12:30:38.936Z,858.77
2018-07-14T12:33:06.041Z,845.77
2018-07-14T12:35:33.220Z,849.07
2018-07-14T12:38:00.406Z,839.07
2018-07-14T12:40:27.606Z,832.77
2018-07-14T12:42:54.796Z,790.13
2018-07-14T12:45:21.979Z,791.63
2018-07-14T12:47:49.204Z,765.23
2018-07-14T12:50:16.404Z,742.60
2018-07-14T12:52:43.629Z,736.07
2018-07-14T12:55:10.845Z,731.33
2018-07-14T12:57:38.037Z,719.47
2018-07-14T13:00:05.843Z,716.37
2018-07-14T13:02:32.991Z,704.77
2018-07-14T13:05:00.188Z,704.60
2018-07-14T13:07:27.381Z,760.67
2018-07-14T13:09:54.592Z,764.00
2018-07-14T13:12:21.823Z,808.20
2018-07-14T13:14:49.017Z,807.47
2018-07-14T13:17:16.283Z,810.97
2018-07-14T13:19:43.464Z,845.57
2018-07-14T13:22:10.690Z,840.97
2018-07-14T13:24:37.915Z,827.33
2018-07-14T13:27:05.305Z,844.27
2018-07-14T13:29:32.504Z,827.80
2018-07-14T13:31:59.702Z,854.43
2018-07-14T13:34:26.924Z,838.77
2018-07-14T13:36:54.116Z,851.93
2018-07-14T13:39:21.305Z,834.23
2018-07-14T13:41:48.480Z,866.80
2018-07-14T13:44:15.698Z,848.83
2018-07-14T13:46:42.899Z,877.33
2018-07-14T13:49:10.109Z,861.13
2018-07-14T13:51:37.289Z,851.77
2018-07-14T13:54:04.532Z,866.10
2018-07-14T13:56:31.748Z,823.50
2018-07-14T13:58:58.944Z,813.10
2018-07-14T14:01:26.124Z,824.57
2018-07-14T14:03:53.350Z,834.87
2018-07-14T14:06:20.541Z,815.53
2018-07-14T14:08:47.813Z,840.77
2018-07-14T14:11:15.072Z,838.63
2018-07-14T14:13:42.245Z,833.47
2018-07-14T14:16:09.445Z,801.20
2018-07-14T14:18:36.654Z,780.37
2018-07-14T14:21:03.884Z,782.83
2018-07-14T14:23:31.125Z,774.10
2018-07-14T14:25:58.318Z,752.37
2018-07-14T14:28:25.563Z,733.63
2018-07-14T14:30:52.788Z,709.83
2018-07-14T14:33:19.976Z,701.23
2018-07-14T14:35:47.185Z,701.73
2018-07-14T14:38:14.624Z,690.13
2018-07-14T14:40:41.802Z,668.83
2018-07-14T14:43:09.060Z,664.47
2018-07-14T14:45:36.254Z,664.70
2018-07-14T14:48:03.449Z,678.30
2018-07-14T14:50:30.645Z,666.77
2018-07-14T14:52:57.860Z,670.73
2018-07-14T14:55:25.062Z,681.80
2018-07-14T14:57:52.253Z,631.00
2018-07-14T15:00:19.452Z,622.40
2018-07-14T15:02:46.632Z,640.03
2018-07-14T15:05:13.848Z,612.07
2018-07-14T15:07:41.044Z,594.23
2018-07-14T15:10:08.280Z,592.37
2018-07-14T15:12:35.477Z,584.17
2018-07-14T15:15:02.805Z,592.53
2018-07-14T15:17:30.037Z,586.70
2018-07-14T15:19:57.253Z,591.37
2018-07-14T15:22:24.442Z,619.67
2018-07-14T15:24:51.636Z,605.47
2018-07-14T15:27:18.808Z,608.13
2018-07-14T15:29:46.008Z,618.17
2018-07-14T15:32:13.194Z,639.97
2018-07-14T15:34:40.380Z,663.33
2018-07-14T15:37:07.606Z,714.67
2018-07-14T15:39:34.813Z,696.83
2018-07-14T15:42:02.049Z,690.97
2018-07-14T15:44:29.233Z,698.70
2018-07-14T15:46:56.449Z,690.30
2018-07-14T15:49:23.644Z,700.83
2018-07-14T15:51:50.857Z,706.07
2018-07-14T15:54:18.055Z,723.67
2018-07-14T15:56:45.249Z,764.37
2018-07-14T15:59:12.462Z,781.17
2018-07-14T16:01:39.685Z,762.40
2018-07-14T16:04:06.872Z,771.47
2018-07-14T16:06:34.166Z,762.50
2018-07-14T16:09:01.343Z,778.73
2018-07-14T16:11:28.549Z,745.53
2018-07-14T16:13:55.749Z,754.03
2018-07-14T16:16:22.957Z,751.13
2018-07-14T16:18:50.162Z,746.37
2018-07-14T16:21:17.352Z,722.37
2018-07-14T16:23:44.537Z,688.80
2018-07-14T16:26:11.717Z,713.47
2018-07-14T16:28:38.889Z,671.37
2018-07-14T16:31:06.082Z,651.30
2018-07-14T16:33:33.274Z,653.23
2018-07-14T16:36:00.477Z,643.97
2018-07-14T16:38:27.671Z,635.50
2018-07-14T16:40:54.911Z,649.17
2018-07-14T16:43:22.117Z,648.87
2018-07-14T16:45:49.342Z,613.80
2018-07-14T16:48:16.545Z,629.63
2018-07-14T16:50:43.743Z,615.53
2018-07-14T16:53:10.968Z,621.57
2018-07-14T16:55:38.150Z,604.33
2018-07-14T16:58:05.394Z,583.20
2018-07-14T17:00:32.576Z,583.43
2018-07-14T17:02:59.775Z,581.23
2018-07-14T17:05:26.976Z,581.77
2018-07-14T17:07:54.177Z,580.60
2018-07-14T17:10:21.381Z,592.20
2018-07-14T17:12:48.576Z,589.57
2018-07-14T17:15:15.755Z,593.90
2018-07-14T17:17:42.941Z,582.07
2018-07-14T17:20:10.116Z,586.93
2018-07-14T17:22:37.305Z,582.20
2018-07-14T17:25:04.700Z,578.63
2018-07-14T17:27:31.908Z,583.33
2018-07-14T17:29:59.117Z,583.33
2018-07-14T17:32:26.320Z,577.47
2018-07-14T17:34:53.533Z,579.57
2018-07-14T17:37:20.732Z,578.03
2018-07-14T17:39:47.920Z,578.17
2018-07-14T17:42:15.114Z,574.07
2018-07-14T17:44:42.320Z,572.97
2018-07-14T17:47:09.538Z,573.23
2018-07-14T17:49:36.720Z,574.70
2018-07-14T17:52:04.900Z,574.47
2018-07-14T17:54:31.937Z,578.40
2018-07-14T17:56:59.141Z,572.17
2018-07-14T17:59:26.329Z,576.97
2018-07-14T18:01:53.524Z,578.60
2018-07-14T18:04:20.709Z,573.07
2018-07-14T18:06:47.892Z,570.57
2018-07-14T18:09:15.113Z,570.10
2018-07-14T18:11:42.306Z,570.97
2018-07-14T18:14:09.508Z,575.10
2018-07-14T18:16:36.812Z,569.87
2018-07-14T18:19:03.976Z,571.40
2018-07-14T18:21:31.144Z,569.77
2018-07-14T18:23:58.320Z,571.40
2018-07-14T18:26:25.517Z,567.67
2018-07-14T18:28:52.740Z,576.30
2018-07-14T18:31:19.921Z,569.47
2018-07-14T18:33:47.180Z,568.93
2018-07-14T18:36:14.415Z,569.77
2018-07-14T18:38:41.581Z,568.50
2018-07-14T18:41:08.776Z,571.07
2018-07-14T18:43:35.991Z,564.20
2018-07-14T18:46:03.434Z,569.10
2018-07-14T18:48:30.637Z,567.83
2018-07-14T18:50:57.932Z,567.10
2018-07-14T18:53:25.169Z,563.00
2018-07-14T18:55:52.361Z,566.77
2018-07-14T18:58:19.555Z,561.10
2018-07-14T19:00:46.789Z,559.63
2018-07-14T19:03:14.043Z,559.87
2018-07-14T19:05:41.414Z,566.60
2018-07-14T19:08:08.612Z,560.20
2018-07-14T19:10:35.813Z,560.60
2018-07-14T19:13:03.009Z,559.90
2018-07-14T19:15:30.217Z,557.93
2018-07-14T19:17:57.417Z,562.30
2018-07-14T19:20:24.625Z,559.97
2018-07-14T19:22:51.800Z,557.10
2018-07-14T19:25:19.000Z,554.13
2018-07-14T19:27:46.176Z,553.20
2018-07-14T19:30:13.417Z,549.43
2018-07-14T19:32:40.560Z,550.07
2018-07-14T19:35:07.792Z,553.73
2018-07-14T19:37:35.010Z,553.30
2018-07-14T19:40:02.267Z,552.57
2018-07-14T19:42:29.465Z,547.70
2018-07-14T19:44:56.649Z,546.20
2018-07-14T19:47:23.833Z,547.17
2018-07-14T19:49:51.035Z,546.57
2018-07-14T19:52:18.231Z,550.83
2018-07-14T19:54:45.412Z,544.70
2018-07-14T19:57:12.630Z,547.47
2018-07-14T19:59:39.896Z,546.17
2018-07-14T20:02:07.305Z,545.63
2018-07-14T20:04:34.577Z,549.07
2018-07-14T20:07:02.141Z,545.83
2018-07-14T20:09:29.389Z,541.57
2018-07-14T20:11:56.716Z,542.40
2018-07-14T20:14:23.900Z,542.57
2018-07-14T20:16:51.081Z,539.00
2018-07-14T20:19:18.293Z,543.53
2018-07-14T20:21:45.486Z,546.17
2018-07-14T20:24:12.673Z,550.03
2018-07-14T20:26:39.904Z,542.47
2018-07-14T20:29:07.082Z,542.67
2018-07-14T20:31:34.265Z,540.77
2018-07-14T20:34:01.486Z,540.20
2018-07-14T20:36:28.689Z,539.57
2018-07-14T20:38:55.914Z,542.37
2018-07-14T20:41:23.118Z,543.83
2018-07-14T20:43:50.315Z,544.80
2018-07-14T20:46:17.512Z,548.23
2018-07-14T20:48:44.705Z,542.50
2018-07-14T20:51:11.926Z,544.53
2018-07-14T20:53:39.102Z,540.80
2018-07-14T20:56:06.305Z,537.47
2018-07-14T20:58:33.492Z,540.00
2018-07-14T21:01:00.949Z,543.30
2018-07-14T21:03:28.168Z,538.97
2018-07-14T21:05:55.778Z,543.37
2018-07-14T21:08:22.977Z,543.47
2018-07-14T21:10:50.168Z,536.37
2018-07-14T21:13:17.539Z,534.83
2018-07-14T21:15:44.757Z,540.63
2018-07-14T21:18:11.965Z,538.03
2018-07-14T21:20:39.202Z,537.43
2018-07-14T21:23:06.369Z,534.47
2018-07-14T21:25:33.570Z,539.73
2018-07-14T21:28:00.976Z,539.13
2018-07-14T21:30:28.185Z,534.27
2018-07-14T21:32:55.610Z,537.20
2018-07-14T21:35:22.802Z,532.60
2018-07-14T21:37:50.137Z,533.17
2018-07-14T21:40:17.348Z,536.17
2018-07-14T21:42:44.520Z,532.60
2018-07-14T21:45:11.904Z,536.57
2018-07-14T21:47:39.288Z,531.00
2018-07-14T21:50:06.540Z,535.37
2018-07-14T21:52:33.721Z,535.20
2018-07-14T21:55:01.049Z,538.03
2018-07-14T21:57:28.233Z,535.30
2018-07-14T21:59:55.434Z,536.20
2018-07-14T22:02:22.685Z,535.53
2018-07-14T22:04:49.868Z,528.67
2018-07-14T22:07:17.123Z,532.17
2018-07-14T22:09:44.244Z,530.80
2018-07-14T22:12:11.711Z,535.20
2018-07-14T22:14:38.775Z,532.07
2018-07-14T22:17:06.145Z,530.53
2018-07-14T22:19:33.356Z,535.43
2018-07-14T22:22:00.561Z,533.73
2018-07-14T22:24:27.756Z,533.33
2018-07-14T22:26:54.968Z,533.63
2018-07-14T22:29:22.174Z,538.27
2018-07-14T22:31:49.343Z,527.30
2018-07-14T22:34:16.536Z,530.70
2018-07-14T22:36:43.854Z,528.27
2018-07-14T22:39:11.021Z,528.57
2018-07-14T22:41:38.797Z,536.77
2018-07-14T22:44:05.996Z,533.73
2018-07-14T22:46:33.198Z,533.07
2018-07-14T22:49:00.364Z,531.07
2018-07-14T22:51:27.576Z,530.83
2018-07-14T22:53:54.772Z,532.97
2018-07-14T22:56:21.960Z,533.60
2018-07-14T22:58:49.140Z,530.03
2018-07-14T23:01:16.336Z,532.00
2018-07-14T23:03:43.509Z,530.00
2018-07-14T23:06:10.770Z,529.73
2018-07-14T23:08:37.985Z,528.53
2018-07-14T23:11:05.249Z,527.33
2018-07-14T23:13:32.437Z,536.07
2018-07-14T23:15:59.613Z,529.37
2018-07-14T23:18:26.918Z,532.73
2018-07-14T23:20:54.133Z,530.10
2018-07-14T23:23:21.347Z,530.37
2018-07-14T23:25:48.533Z,531.93
2018-07-14T23:28:15.729Z,528.83
2018-07-14T23:30:42.910Z,529.33
2018-07-14T23:33:10.094Z,534.47
2018-07-14T23:35:37.302Z,528.87
2018-07-14T23:38:04.541Z,528.33
2018-07-14T23:40:31.733Z,530.60
2018-07-14T23:42:58.921Z,529.23
2018-07-14T23:45:26.112Z,527.83
2018-07-14T23:47:53.333Z,532.30
2018-07-14T23:50:20.512Z,530.13
2018-07-14T23:52:47.849Z,528.30
2018-07-14T23:55:15.032Z,527.27
2018-07-14T23:57:42.237Z,526.93
